createdAt,value
2023-03-19T00:00:53.180Z,22.67
2023-03-19T00:03:41.627Z,22.95
2023-03-19T00:06:09.347Z,24.33
2023-03-19T00:08:37.153Z,24.17
2023-03-19T00:11:09.890Z,23.35
2023-03-19T00:13:38.225Z,23.40
2023-03-19T00:16:07.772Z,22.92
2023-03-19T00:18:36.336Z,23.75
2023-03-19T00:21:04.262Z,35.53
2023-03-19T00:23:32.013Z,34.58
2023-03-19T00:25:59.656Z,34.67
2023-03-19T00:28:28.053Z,31.17
2023-03-19T00:30:55.817Z,28.13
2023-03-19T00:33:23.981Z,30.38
2023-03-19T00:35:53.243Z,43.30
2023-03-19T00:38:21.196Z,40.33
2023-03-19T00:40:49.005Z,36.63
2023-03-19T00:43:16.807Z,35.75
2023-03-19T00:45:44.416Z,34.97
2023-03-19T00:48:12.519Z,33.60
2023-03-19T00:50:40.456Z,30.10
2023-03-19T00:53:08.352Z,25.98
2023-03-19T00:55:36.675Z,27.23
2023-03-19T00:58:06.567Z,27.05
2023-03-19T01:00:37.428Z,28.58
2023-03-19T01:03:06.518Z,32.20
2023-03-19T01:08:04.935Z,30.80
2023-03-19T01:10:34.837Z,26.15
2023-03-19T01:13:03.835Z,24.45
2023-03-19T01:15:31.984Z,25.33
2023-03-19T01:18:00.008Z,25.63
2023-03-19T01:20:27.565Z,23.02
2023-03-19T01:22:56.070Z,22.75
2023-03-19T01:25:23.775Z,26.92
2023-03-19T01:28:02.919Z,22.35
2023-03-19T01:30:30.659Z,21.40
2023-03-19T01:33:23.732Z,20.92
2023-03-19T01:36:05.560Z,20.00
2023-03-19T01:38:52.874Z,22.38
2023-03-19T01:41:21.035Z,22.98
2023-03-19T01:43:50.680Z,22.55
2023-03-19T01:46:47.801Z,20.25
2023-03-19T01:49:40.461Z,21.15
2023-03-19T01:52:17.335Z,25.50
2023-03-19T01:55:09.170Z,25.80
2023-03-19T01:58:04.508Z,24.02
2023-03-19T02:01:01.348Z,27.77
2023-03-19T02:03:29.993Z,23.40
2023-03-19T02:06:13.577Z,21.13
2023-03-19T02:08:42.279Z,21.95
2023-03-19T02:11:10.589Z,23.23
2023-03-19T02:13:38.825Z,23.67
2023-03-19T02:16:07.404Z,23.95
2023-03-19T02:18:36.259Z,20.02
2023-03-19T02:21:07.537Z,19.25
2023-03-19T02:23:53.244Z,18.73
2023-03-19T02:26:30.898Z,18.83
2023-03-19T02:29:04.237Z,19.10
2023-03-19T02:31:35.884Z,17.80
2023-03-19T02:34:28.633Z,18.35
2023-03-19T02:37:04.043Z,18.00
2023-03-19T02:39:52.863Z,19.35
2023-03-19T02:42:24.245Z,18.05
2023-03-19T02:44:51.962Z,19.75
2023-03-19T02:47:20.535Z,18.00
2023-03-19T02:49:48.151Z,19.20
2023-03-19T02:52:17.439Z,19.10
2023-03-19T02:54:44.988Z,17.65
2023-03-19T02:57:13.159Z,18.17
2023-03-19T02:59:40.914Z,19.05
2023-03-19T03:02:10.207Z,18.85
2023-03-19T03:04:37.820Z,17.55
2023-03-19T03:07:06.233Z,18.45
2023-03-19T03:09:34.179Z,18.00
2023-03-19T03:12:02.190Z,16.98
2023-03-19T03:14:29.868Z,17.85
2023-03-19T03:16:58.707Z,17.65
2023-03-19T03:19:26.521Z,17.00
2023-03-19T03:21:54.322Z,17.90
2023-03-19T03:24:22.181Z,17.20
2023-03-19T03:26:50.003Z,18.25
2023-03-19T03:29:18.218Z,17.90
2023-03-19T03:31:46.290Z,16.50
2023-03-19T03:34:13.933Z,16.85
2023-03-19T03:36:42.178Z,17.25
2023-03-19T03:39:09.801Z,17.08
2023-03-19T03:41:37.618Z,17.42
2023-03-19T03:44:05.802Z,18.27
2023-03-19T03:46:36.802Z,17.52
2023-03-19T03:49:04.429Z,16.30
2023-03-19T03:51:32.951Z,17.13
2023-03-19T03:54:01.153Z,17.13
2023-03-19T03:56:29.169Z,15.63
2023-03-19T03:58:56.785Z,15.90
2023-03-19T04:01:24.677Z,16.52
2023-03-19T04:03:56.294Z,16.65
2023-03-19T04:06:25.069Z,16.20
2023-03-19T04:09:13.016Z,15.60
2023-03-19T04:11:42.296Z,15.82
2023-03-19T04:14:09.891Z,15.25
2023-03-19T04:16:39.669Z,16.13
2023-03-19T04:19:07.756Z,15.02
2023-03-19T04:21:35.899Z,16.60
2023-03-19T04:24:04.120Z,15.55
2023-03-19T04:26:32.105Z,16.00
2023-03-19T04:28:59.758Z,16.00
2023-03-19T04:31:28.626Z,15.60
2023-03-19T04:33:56.275Z,16.60
2023-03-19T04:36:24.209Z,15.65
2023-03-19T04:38:52.633Z,16.08
2023-03-19T04:41:21.443Z,17.42
2023-03-19T04:44:20.272Z,16.55
2023-03-19T04:46:48.175Z,15.82
2023-03-19T04:49:18.024Z,15.65
2023-03-19T04:51:46.558Z,17.23
2023-03-19T04:54:14.359Z,15.30
2023-03-19T04:56:42.619Z,16.00
2023-03-19T04:59:10.607Z,17.23
2023-03-19T05:01:38.464Z,16.02
2023-03-19T05:04:09.078Z,16.48
2023-03-19T05:06:40.019Z,14.93
2023-03-19T05:09:07.869Z,15.65
2023-03-19T05:11:36.103Z,17.27
2023-03-19T05:14:07.150Z,16.73
2023-03-19T05:16:55.049Z,14.85
2023-03-19T05:19:23.229Z,14.88
2023-03-19T05:21:51.600Z,15.05
2023-03-19T05:24:25.230Z,15.05
2023-03-19T05:26:54.435Z,15.57
2023-03-19T05:29:42.675Z,16.23
2023-03-19T05:32:30.844Z,15.25
2023-03-19T05:35:01.933Z,15.95
2023-03-19T05:37:30.298Z,15.27
2023-03-19T05:39:59.921Z,15.23
2023-03-19T05:42:27.794Z,15.85
2023-03-19T05:44:58.164Z,15.25
2023-03-19T05:47:29.087Z,16.17
2023-03-19T05:49:58.612Z,15.60
2023-03-19T05:52:26.642Z,15.23
2023-03-19T05:54:57.824Z,14.18
2023-03-19T05:57:36.698Z,15.13
2023-03-19T06:00:16.064Z,13.98
2023-03-19T06:02:44.754Z,14.05
2023-03-19T06:05:28.298Z,14.68
2023-03-19T06:08:00.964Z,13.70
2023-03-19T06:10:37.846Z,14.55
2023-03-19T06:13:10.743Z,13.48
2023-03-19T06:15:42.034Z,14.63
2023-03-19T06:18:39.269Z,14.32
2023-03-19T06:21:10.600Z,14.52
2023-03-19T06:23:38.606Z,14.60
2023-03-19T06:26:07.942Z,14.45
2023-03-19T06:28:43.957Z,14.82
2023-03-19T06:31:11.653Z,14.13
2023-03-19T06:33:55.314Z,14.57
2023-03-19T06:36:27.111Z,14.98
2023-03-19T06:38:55.607Z,15.63
2023-03-19T06:41:24.790Z,16.40
2023-03-19T06:43:53.355Z,14.27
2023-03-19T06:46:21.228Z,14.15
2023-03-19T06:48:49.050Z,14.05
2023-03-19T06:51:16.679Z,13.88
2023-03-19T06:53:44.458Z,14.35
2023-03-19T06:56:12.437Z,14.88
2023-03-19T06:58:40.425Z,14.68
2023-03-19T07:01:09.101Z,13.48
2023-03-19T07:03:37.208Z,14.00
2023-03-19T07:06:05.009Z,14.45
2023-03-19T07:08:32.991Z,14.80
2023-03-19T07:11:07.631Z,15.55
2023-03-19T07:13:36.008Z,14.45
2023-03-19T07:16:03.763Z,15.20
2023-03-19T07:18:31.654Z,14.77
2023-03-19T07:20:59.205Z,15.00
2023-03-19T07:23:27.066Z,15.77
2023-03-19T07:25:54.746Z,16.35
2023-03-19T07:28:23.138Z,15.57
2023-03-19T07:30:53.350Z,14.88
2023-03-19T07:33:22.068Z,15.65
2023-03-19T07:35:49.766Z,15.30
2023-03-19T07:38:17.860Z,15.27
2023-03-19T07:40:54.795Z,14.38
2023-03-19T07:43:29.108Z,15.13
2023-03-19T07:45:56.677Z,14.77
2023-03-19T07:48:24.740Z,14.93
2023-03-19T07:50:52.924Z,14.98
2023-03-19T07:53:20.984Z,14.60
2023-03-19T07:55:49.135Z,15.35
2023-03-19T07:58:17.094Z,14.80
2023-03-19T08:00:45.246Z,15.18
2023-03-19T08:03:13.212Z,15.15
2023-03-19T08:05:40.863Z,14.85
2023-03-19T08:08:08.733Z,14.35
2023-03-19T08:10:38.406Z,14.82
2023-03-19T08:13:06.972Z,14.43
2023-03-19T08:15:34.870Z,13.77
2023-03-19T08:18:04.992Z,14.52
2023-03-19T08:20:33.686Z,14.98
2023-03-19T08:23:01.665Z,14.60
2023-03-19T08:25:32.532Z,14.27
2023-03-19T08:28:01.671Z,13.70
2023-03-19T08:30:29.259Z,14.07
2023-03-19T08:32:57.318Z,14.45
2023-03-19T08:35:28.631Z,14.20
2023-03-19T08:37:57.062Z,14.25
2023-03-19T08:40:24.905Z,14.05
2023-03-19T08:42:53.648Z,13.95
2023-03-19T08:45:21.918Z,14.52
2023-03-19T08:47:50.557Z,14.27
2023-03-19T08:50:18.865Z,14.73
2023-03-19T08:52:46.871Z,14.38
2023-03-19T08:55:14.454Z,14.43
2023-03-19T08:57:42.353Z,14.85
2023-03-19T09:00:11.074Z,14.85
2023-03-19T09:02:40.346Z,14.65
2023-03-19T09:05:08.530Z,13.38
2023-03-19T09:07:36.607Z,13.40
2023-03-19T09:10:04.537Z,13.70
2023-03-19T09:12:32.971Z,13.73
2023-03-19T09:15:00.509Z,14.27
2023-03-19T09:17:28.408Z,13.55
2023-03-19T09:19:55.977Z,13.43
2023-03-19T09:22:23.839Z,13.43
2023-03-19T09:24:51.673Z,13.52
2023-03-19T09:27:20.645Z,13.55
2023-03-19T09:29:48.252Z,12.82
2023-03-19T09:32:16.218Z,12.95
2023-03-19T09:34:44.105Z,13.25
2023-03-19T09:37:12.003Z,12.85
2023-03-19T09:39:39.595Z,12.80
2023-03-19T09:42:45.954Z,12.82
2023-03-19T09:45:16.704Z,12.65
2023-03-19T09:47:47.482Z,13.15
2023-03-19T09:50:18.418Z,13.13
2023-03-19T09:53:04.076Z,12.23
2023-03-19T09:55:48.116Z,12.68
2023-03-19T10:00:51.381Z,12.48
2023-03-19T10:03:35.556Z,12.48
2023-03-19T10:06:21.320Z,12.43
2023-03-19T10:09:41.341Z,12.85
2023-03-19T10:12:30.132Z,11.88
2023-03-19T10:15:19.791Z,12.55
2023-03-19T10:18:02.912Z,13.48
2023-03-19T10:20:46.284Z,12.98
2023-03-19T10:23:34.713Z,13.68
2023-03-19T10:26:05.809Z,13.13
2023-03-19T10:28:33.522Z,13.00
2023-03-19T10:31:22.589Z,13.10
2023-03-19T10:34:12.257Z,12.65
2023-03-19T10:36:40.179Z,13.40
2023-03-19T10:39:07.968Z,12.88
2023-03-19T10:41:42.091Z,12.27
2023-03-19T10:44:48.594Z,12.32
2023-03-19T10:47:20.053Z,12.63
2023-03-19T10:49:49.787Z,11.88
2023-03-19T10:52:24.781Z,12.02
2023-03-19T10:54:57.376Z,11.25
2023-03-19T10:57:31.918Z,11.90
2023-03-19T11:00:22.693Z,12.30
2023-03-19T11:02:56.179Z,11.77
2023-03-19T11:05:29.884Z,10.90
2023-03-19T11:08:05.400Z,10.85
2023-03-19T11:10:36.061Z,10.20
2023-03-19T11:13:27.218Z,10.43
2023-03-19T11:15:59.499Z,10.05
2023-03-19T11:18:37.139Z,9.65
2023-03-19T11:21:30.257Z,10.27
2023-03-19T11:24:04.301Z,9.85
2023-03-19T11:26:32.495Z,9.73
2023-03-19T11:29:05.141Z,9.52
2023-03-19T11:31:47.010Z,9.60
2023-03-19T11:34:34.216Z,9.50
2023-03-19T11:37:18.335Z,8.48
2023-03-19T11:40:00.505Z,9.00
2023-03-19T11:42:45.181Z,9.43
2023-03-19T11:45:42.309Z,10.02
2023-03-19T11:48:25.786Z,10.02
2023-03-19T11:51:16.732Z,9.45
2023-03-19T11:54:03.196Z,10.68
2023-03-19T11:56:48.125Z,9.43
2023-03-19T11:59:45.100Z,9.85
2023-03-19T12:02:46.919Z,10.25
2023-03-19T12:05:36.918Z,10.65
2023-03-19T12:08:07.556Z,10.95
2023-03-19T12:11:02.028Z,10.43
2023-03-19T12:16:15.932Z,10.07
2023-03-19T12:19:05.464Z,11.65
2023-03-19T12:21:59.350Z,10.82
2023-03-19T12:25:01.931Z,10.57
2023-03-19T12:27:48.355Z,10.30
2023-03-19T12:30:39.787Z,10.85
2023-03-19T12:33:26.167Z,9.63
2023-03-19T12:35:56.795Z,9.68
2023-03-19T12:38:31.059Z,9.05
2023-03-19T12:41:13.035Z,8.80
2023-03-19T12:44:05.974Z,9.25
2023-03-19T12:47:02.287Z,8.85
2023-03-19T12:49:46.351Z,9.25
2023-03-19T12:52:44.001Z,9.00
2023-03-19T12:55:40.848Z,9.10
2023-03-19T12:58:32.521Z,8.80
2023-03-19T13:01:19.052Z,8.85
2023-03-19T13:04:15.181Z,9.32
2023-03-19T13:07:00.778Z,8.23
2023-03-19T13:09:43.592Z,8.38
2023-03-19T13:12:19.139Z,8.38
2023-03-19T13:15:16.583Z,8.07
2023-03-19T13:18:02.000Z,8.18
2023-03-19T13:20:33.128Z,8.20
2023-03-19T13:23:04.674Z,8.38
2023-03-19T13:25:38.706Z,8.80
2023-03-19T13:28:21.050Z,8.05
2023-03-19T13:31:17.624Z,8.18
2023-03-19T13:34:04.279Z,8.27
2023-03-19T13:36:38.324Z,7.78
2023-03-19T13:39:18.294Z,8.38
2023-03-19T13:41:54.855Z,8.00
2023-03-19T13:44:22.418Z,7.35
2023-03-19T13:46:51.426Z,7.82
2023-03-19T13:49:33.938Z,7.80
2023-03-19T13:52:12.491Z,7.97
2023-03-19T13:54:43.573Z,7.63
2023-03-19T13:57:14.657Z,8.48
2023-03-19T13:59:44.972Z,8.70
2023-03-19T14:02:25.590Z,8.13
2023-03-19T14:05:19.614Z,8.52
2023-03-19T14:07:54.946Z,8.20
2023-03-19T14:10:31.275Z,8.02
2023-03-19T14:13:10.148Z,7.50
2023-03-19T14:15:47.779Z,7.60
2023-03-19T14:18:21.174Z,7.95
2023-03-19T14:21:01.102Z,7.93
2023-03-19T14:23:41.219Z,7.97
2023-03-19T14:26:17.935Z,7.70
2023-03-19T14:29:06.244Z,7.75
2023-03-19T14:31:55.925Z,8.20
2023-03-19T14:34:43.993Z,8.80
2023-03-19T14:37:17.669Z,9.00
2023-03-19T14:39:50.352Z,8.18
2023-03-19T14:42:28.125Z,7.35
2023-03-19T14:45:14.898Z,7.32
2023-03-19T14:48:04.411Z,7.38
2023-03-19T14:50:54.169Z,7.22
2023-03-19T14:53:37.284Z,7.15
2023-03-19T14:56:35.852Z,7.88
2023-03-19T14:59:06.451Z,7.60
2023-03-19T15:01:41.559Z,7.50
2023-03-19T15:04:15.852Z,7.55
2023-03-19T15:06:51.168Z,7.20
2023-03-19T15:09:31.249Z,8.05
2023-03-19T15:12:07.972Z,8.38
2023-03-19T15:15:03.654Z,7.00
2023-03-19T15:17:32.538Z,7.43
2023-03-19T15:20:03.145Z,7.35
2023-03-19T15:22:33.627Z,7.63
2023-03-19T15:25:15.163Z,7.00
2023-03-19T15:27:43.093Z,6.78
2023-03-19T15:30:28.807Z,7.18
2023-03-19T15:33:10.535Z,7.28
2023-03-19T15:35:42.969Z,6.90
2023-03-19T15:38:15.315Z,6.93
2023-03-19T15:40:43.477Z,6.38
2023-03-19T15:43:13.622Z,6.03
2023-03-19T15:45:46.727Z,7.38
2023-03-19T15:48:28.279Z,6.32
2023-03-19T15:51:02.298Z,6.78
2023-03-19T15:53:33.293Z,7.07
2023-03-19T15:56:02.948Z,6.60
2023-03-19T15:58:37.122Z,6.18
2023-03-19T16:01:09.696Z,6.78
2023-03-19T16:03:55.386Z,7.00
2023-03-19T16:06:28.583Z,6.47
2023-03-19T16:09:07.090Z,6.65
2023-03-19T16:11:37.657Z,6.90
2023-03-19T16:14:19.086Z,7.07
2023-03-19T16:16:47.637Z,6.57
2023-03-19T16:19:36.304Z,6.65
2023-03-19T16:22:21.035Z,7.20
2023-03-19T16:24:51.740Z,7.28
2023-03-19T16:27:22.049Z,6.85
2023-03-19T16:30:00.801Z,6.32
2023-03-19T16:32:30.566Z,6.45
2023-03-19T16:35:05.043Z,6.88
2023-03-19T16:40:12.456Z,7.38
2023-03-19T16:42:44.197Z,7.75
2023-03-19T16:45:19.729Z,8.73
2023-03-19T16:47:52.442Z,7.55
2023-03-19T16:50:26.541Z,8.55
2023-03-19T16:52:54.161Z,8.98
2023-03-19T16:55:27.786Z,9.30
2023-03-19T16:58:36.511Z,14.30
2023-03-19T17:01:25.642Z,14.25
2023-03-19T17:03:54.082Z,11.93
2023-03-19T17:06:22.807Z,12.85
2023-03-19T17:08:50.406Z,10.77
2023-03-19T17:11:28.292Z,10.90
2023-03-19T17:13:58.965Z,9.98
2023-03-19T17:16:28.236Z,10.77
2023-03-19T17:18:56.810Z,22.80
2023-03-19T17:21:33.279Z,31.88
2023-03-19T17:24:14.844Z,30.90
2023-03-19T17:26:42.739Z,27.77
2023-03-19T17:29:10.461Z,30.38
2023-03-19T17:31:38.496Z,39.60
2023-03-19T17:34:12.450Z,37.88
2023-03-19T17:36:40.679Z,29.05
2023-03-19T17:39:11.600Z,26.33
2023-03-19T17:41:40.008Z,28.88
2023-03-19T17:44:07.686Z,31.70
2023-03-19T17:46:41.628Z,35.40
2023-03-19T17:49:18.102Z,37.90
2023-03-19T17:51:46.177Z,39.20
2023-03-19T17:54:13.841Z,42.28
2023-03-19T17:56:43.426Z,49.95
2023-03-19T17:59:11.501Z,51.97
2023-03-19T18:01:47.133Z,45.08
2023-03-19T18:04:17.555Z,42.50
2023-03-19T18:06:52.051Z,41.38
2023-03-19T18:09:23.542Z,127.60
2023-03-19T18:11:51.858Z,79.40
2023-03-19T18:14:19.630Z,57.50
2023-03-19T18:16:48.052Z,52.63
2023-03-19T18:19:37.258Z,48.83
2023-03-19T18:22:16.815Z,64.05
2023-03-19T18:24:44.955Z,57.67
2023-03-19T18:27:13.985Z,54.50
2023-03-19T18:29:41.734Z,49.38
2023-03-19T18:32:18.540Z,46.08
2023-03-19T18:34:46.239Z,43.20
2023-03-19T18:37:17.941Z,34.13
2023-03-19T18:39:45.931Z,36.28
2023-03-19T18:42:14.695Z,37.00
2023-03-19T18:44:43.015Z,31.88
2023-03-19T18:47:15.846Z,33.00
2023-03-19T18:49:44.668Z,33.70
2023-03-19T18:52:18.680Z,36.70
2023-03-19T18:54:47.169Z,39.10
2023-03-19T18:57:16.478Z,39.03
2023-03-19T18:59:44.352Z,40.90
2023-03-19T19:02:37.402Z,39.97
2023-03-19T19:05:05.579Z,42.45
2023-03-19T19:07:33.405Z,42.85
2023-03-19T19:10:00.992Z,44.35
2023-03-19T19:12:28.841Z,43.35
2023-03-19T19:15:05.162Z,42.72
2023-03-19T19:17:35.102Z,45.47
2023-03-19T19:20:02.709Z,44.55
2023-03-19T19:22:30.717Z,44.60
2023-03-19T19:24:58.324Z,42.67
2023-03-19T19:27:26.760Z,53.15
2023-03-19T19:29:54.709Z,51.53
2023-03-19T19:32:30.689Z,47.17
2023-03-19T19:34:58.459Z,53.60
2023-03-19T19:37:26.255Z,48.90
2023-03-19T19:39:53.881Z,49.22
2023-03-19T19:42:23.335Z,48.50
2023-03-19T19:44:58.803Z,49.85
2023-03-19T19:47:27.702Z,50.55
2023-03-19T19:49:56.449Z,51.85
2023-03-19T19:52:24.364Z,55.95
2023-03-19T19:54:52.491Z,48.80
2023-03-19T19:57:23.125Z,48.85
2023-03-19T19:59:55.615Z,48.08
2023-03-19T20:02:28.927Z,50.88
2023-03-19T20:04:57.934Z,49.63
2023-03-19T20:07:25.748Z,53.10
2023-03-19T20:09:53.328Z,53.83
2023-03-19T20:12:30.961Z,48.72
2023-03-19T20:14:58.859Z,48.15
2023-03-19T20:17:27.409Z,47.63
2023-03-19T20:19:55.279Z,51.72
2023-03-19T20:22:23.084Z,52.17
2023-03-19T20:24:51.620Z,48.53
2023-03-19T20:27:31.050Z,49.20
2023-03-19T20:29:59.124Z,49.65
2023-03-19T20:32:33.917Z,65.57
2023-03-19T20:35:02.198Z,54.60
2023-03-19T20:37:30.810Z,53.30
2023-03-19T20:39:58.779Z,52.50
2023-03-19T20:42:30.275Z,48.80
2023-03-19T20:44:59.702Z,51.13
2023-03-19T20:47:28.360Z,50.42
2023-03-19T20:49:56.308Z,49.83
2023-03-19T20:52:24.094Z,50.88
2023-03-19T20:54:52.712Z,49.05
2023-03-19T20:57:29.178Z,52.22
2023-03-19T20:59:57.298Z,51.08
2023-03-19T21:02:26.389Z,53.13
2023-03-19T21:04:54.086Z,52.85
2023-03-19T21:07:34.532Z,52.75
2023-03-19T21:10:11.837Z,53.72
2023-03-19T21:12:39.679Z,55.70
2023-03-19T21:15:13.016Z,56.35
2023-03-19T21:17:41.242Z,54.33
2023-03-19T21:20:16.034Z,61.03
2023-03-19T21:22:44.778Z,61.15
2023-03-19T21:25:19.932Z,61.83
2023-03-19T21:27:52.237Z,62.50
2023-03-19T21:30:21.784Z,64.90
2023-03-19T21:32:50.152Z,62.70
2023-03-19T21:35:24.152Z,62.80
2023-03-19T21:37:53.052Z,61.85
2023-03-19T21:40:25.862Z,59.55
2023-03-19T21:42:57.935Z,59.28
2023-03-19T21:45:36.408Z,61.33
2023-03-19T21:48:22.759Z,62.60
2023-03-19T21:50:50.455Z,61.72
2023-03-19T21:53:19.482Z,59.63
2023-03-19T21:55:47.878Z,61.83
2023-03-19T21:58:18.092Z,58.03
2023-03-19T22:00:46.291Z,58.20
2023-03-19T22:03:18.561Z,60.55
2023-03-19T22:05:48.414Z,61.75
2023-03-19T22:08:18.126Z,63.63
2023-03-19T22:10:46.967Z,64.72
2023-03-19T22:13:23.981Z,64.53
2023-03-19T22:15:54.347Z,63.33
2023-03-19T22:18:22.748Z,64.68
2023-03-19T22:20:51.089Z,66.45
2023-03-19T22:23:20.517Z,58.75
2023-03-19T22:25:53.181Z,63.72
2023-03-19T22:28:32.442Z,65.28
2023-03-19T22:31:02.938Z,66.05
2023-03-19T22:33:30.959Z,63.58
2023-03-19T22:35:58.619Z,62.40
2023-03-19T22:38:26.531Z,63.70
2023-03-19T22:40:56.019Z,64.32
2023-03-19T22:43:34.085Z,63.88
2023-03-19T22:46:08.143Z,61.42
2023-03-19T22:48:37.338Z,65.10
2023-03-19T22:51:06.480Z,63.38
2023-03-19T22:53:37.890Z,61.28
2023-03-19T22:56:06.042Z,60.63
2023-03-19T22:58:33.873Z,63.08
2023-03-19T23:01:02.910Z,61.20
2023-03-19T23:03:31.549Z,63.10
2023-03-19T23:06:05.385Z,62.28
2023-03-19T23:08:33.274Z,61.28
2023-03-19T23:11:01.668Z,65.40
2023-03-19T23:13:29.464Z,61.47
2023-03-19T23:16:00.298Z,60.63
2023-03-19T23:18:33.973Z,62.25
2023-03-19T23:21:03.157Z,64.75
2023-03-19T23:23:31.615Z,67.20
2023-03-19T23:25:59.209Z,65.10
2023-03-19T23:28:32.656Z,65.28
2023-03-19T23:31:05.339Z,64.50
2023-03-19T23:33:33.223Z,64.57
2023-03-19T23:36:00.801Z,59.00
2023-03-19T23:38:28.820Z,57.25
2023-03-19T23:40:56.704Z,55.80
2023-03-19T23:43:27.990Z,58.65
2023-03-19T23:45:56.592Z,60.38
2023-03-19T23:48:38.514Z,60.08
2023-03-19T23:51:06.753Z,58.10
2023-03-19T23:53:38.447Z,60.25
2023-03-19T23:56:22.351Z,61.83
2023-03-19T23:58:52.162Z,60.63
